»·PEaware :: N8674U KSMX-KBFL

N8674U :: KSMX-KBFL

FLIGHT INFORMATION

Flight Status: Arrived
Operator: Privately registered:
United States
More flights under this callsign
Pilot: Hyatt B. (30410)
Aircraft: PIPER PA-28 CHEROKEE ARCHER
(PA28)
More flights by this aircraft type
Origin: KSMX Santa Maria Pub/Capt Hancock
United States
Destination: KBFL Meadows
United States
More flights between these airports :: More routes between these airports
Route: FLW
File this flight plan on PilotEdge
Remarks:
Altitude:
(Current/Filed)
7,500ft
Speed:
(Current/Filed)
110kts
Departed: 16-Jul-20 09:43 AM
Arrived: 16-Jul-20 10:29 AM
Distance/Time
Traveled:
76nm/0:46
Distance/Time
To Go:
Arrived

Flight Plot

Page will automatically refresh every two minutes.


Map Options




Map Legend


Flown Route
Filed Route
Departure Airport
Arrival Airport
Navaid (VOR, NDB)
Fix

Horizontal Profiles

Position Reports

Time Latitude Longitude Heading Altitude Ground
Speed
16-Jul-20 09:18 34.901758 -120.452484 228 266ft 0kts
16-Jul-20 09:19 34.901757 -120.452484 228 266ft 0kts
16-Jul-20 09:20 34.901757 -120.452484 228 266ft 0kts
16-Jul-20 09:21 34.901757 -120.452484 228 266ft 0kts
16-Jul-20 09:22 34.901757 -120.452484 228 266ft 0kts
16-Jul-20 09:23 34.901757 -120.452484 228 266ft 0kts
16-Jul-20 09:24 34.901758 -120.452484 228 266ft 0kts
16-Jul-20 09:25 34.901758 -120.452484 228 266ft 0kts
16-Jul-20 09:26 34.901758 -120.452484 228 266ft 0kts
16-Jul-20 09:27 34.901758 -120.452484 228 266ft 0kts
16-Jul-20 09:28 34.901758 -120.452484 228 266ft 0kts
16-Jul-20 09:29 34.901758 -120.452484 228 266ft 0kts
16-Jul-20 09:30 34.901758 -120.452484 228 266ft 0kts
16-Jul-20 09:31 34.901758 -120.452484 228 266ft 0kts
16-Jul-20 09:32 34.901758 -120.452484 228 266ft 0kts
16-Jul-20 09:33 34.901757 -120.452484 228 266ft 0kts
16-Jul-20 09:34 34.901757 -120.452484 228 266ft 0kts
16-Jul-20 09:35 34.901757 -120.452484 228 266ft 0kts
16-Jul-20 09:36 34.901744 -120.452503 227 266ft 1kts
16-Jul-20 09:37 34.900469 -120.452550 136 266ft 10kts
16-Jul-20 09:38 34.898043 -120.449644 136 266ft 11kts
16-Jul-20 09:39 34.895885 -120.447074 135 266ft 11kts
16-Jul-20 09:40 34.893962 -120.445194 183 266ft 7kts
16-Jul-20 09:41 34.893413 -120.445206 179 266ft 5kts
16-Jul-20 09:42 34.898686 -120.452688 318 409ft 77kts
16-Jul-20 09:43 34.918593 -120.460029 56 1168ft 93kts
16-Jul-20 09:44 34.926491 -120.432587 75 2038ft 90kts
16-Jul-20 09:45 34.935042 -120.402431 68 2749ft 97kts
16-Jul-20 09:46 34.944940 -120.371532 68 3450ft 98kts
16-Jul-20 09:47 34.954745 -120.340914 68 4147ft 95kts
16-Jul-20 09:48 34.964144 -120.311652 68 4826ft 91kts
16-Jul-20 09:49 34.973612 -120.282143 68 5382ft 97kts
16-Jul-20 09:50 34.983659 -120.250732 68 5887ft 101kts
16-Jul-20 09:51 34.993939 -120.218596 68 6388ft 101kts
16-Jul-20 09:52 35.004059 -120.186950 68 6883ft 99kts
16-Jul-20 09:53 35.013952 -120.156038 68 7378ft 96kts
16-Jul-20 09:54 35.024790 -120.122175 68 7485ft 119kts
16-Jul-20 09:55 35.037189 -120.083301 68 7481ft 123kts
16-Jul-20 09:56 35.049427 -120.044913 68 7554ft 120kts
16-Jul-20 09:57 35.061761 -120.006248 68 7555ft 123kts
16-Jul-20 09:58 35.074248 -119.967094 68 7554ft 123kts
16-Jul-20 10:00 35.086757 -119.927892 68 7554ft 124kts
16-Jul-20 10:01 35.099183 -119.888624 70 7554ft 124kts
16-Jul-20 10:02 35.110814 -119.849005 69 7554ft 124kts
16-Jul-20 10:03 35.123196 -119.809657 68 7554ft 124kts
16-Jul-20 10:04 35.135764 -119.770285 68 7554ft 124kts
16-Jul-20 10:05 35.148331 -119.730933 68 7554ft 124kts
16-Jul-20 10:06 35.161282 -119.691591 67 7554ft 124kts
16-Jul-20 10:07 35.174421 -119.652491 67 7554ft 124kts
16-Jul-20 10:08 35.187671 -119.613381 67 7554ft 124kts
16-Jul-20 10:09 35.200802 -119.574299 67 7554ft 124kts
16-Jul-20 10:10 35.213459 -119.534862 68 7554ft 124kts
16-Jul-20 10:11 35.226068 -119.495387 68 7554ft 124kts
16-Jul-20 10:12 35.238740 -119.455831 68 7554ft 124kts
16-Jul-20 10:13 35.251343 -119.416422 68 7554ft 124kts
16-Jul-20 10:14 35.264006 -119.376952 68 7554ft 124kts
16-Jul-20 10:15 35.276764 -119.336964 68 7554ft 124kts
16-Jul-20 10:16 35.290096 -119.297088 67 7377ft 126kts
16-Jul-20 10:17 35.302516 -119.258751 69 6948ft 100kts
16-Jul-20 10:18 35.310278 -119.233297 69 6233ft 97kts
16-Jul-20 10:19 35.320503 -119.199719 69 5689ft 107kts
16-Jul-20 10:19 35.329091 -119.171470 69 5186ft 103kts
16-Jul-20 10:21 35.340215 -119.134867 69 4544ft 90kts
16-Jul-20 10:22 35.349437 -119.105201 68 3952ft 95kts
16-Jul-20 10:22 35.357620 -119.079681 68 3455ft 97kts
16-Jul-20 10:23 35.369134 -119.049533 56 2821ft 99kts
16-Jul-20 10:25 35.392237 -119.026943 32 1973ft 79kts
16-Jul-20 10:25 35.409124 -119.025720 321 1404ft 81kts
16-Jul-20 10:26 35.424102 -119.044269 314 809ft 68kts
16-Jul-20 10:27 35.437207 -119.060235 314 496ft 42kts
16-Jul-20 10:28 35.440634 -119.063009 40 500ft 1kts
16-Jul-20 10:29 35.439317 -119.060557 134 500ft 16kts
16-Jul-20 10:30 35.435564 -119.056023 134 494ft 18kts
16-Jul-20 10:31 35.435505 -119.053501 89 498ft 8kts
16-Jul-20 10:32 35.435491 -119.053196 92 499ft 0kts
16-Jul-20 10:33 35.435491 -119.053196 92 499ft 0kts
16-Jul-20 10:34 35.435491 -119.053196 92 499ft 0kts
16-Jul-20 10:35 35.435491 -119.053196 92 499ft 0kts
16-Jul-20 10:36 35.435491 -119.053196 92 499ft 0kts
16-Jul-20 10:37 35.435491 -119.053196 92 499ft 0kts
16-Jul-20 10:38 35.435491 -119.053196 92 499ft 0kts
16-Jul-20 10:39 35.435491 -119.053196 92 499ft 0kts
16-Jul-20 10:40 35.435491 -119.053196 92 499ft 0kts
16-Jul-20 10:41 35.435491 -119.053196 92 499ft 0kts
16-Jul-20 10:42 35.435491 -119.053196 92 499ft 0kts

Navigation Log

Ident Type
Flight plan parsing failed, navigation log unavailable